Flight Track Log - Related Links

Times and Time Zones

All times are in EDT time to prevent confusion due to time zone crossing. See the JBU1329 flight status page for this flight to view local times or setup timezone preferences in your user account.

Time Position Orientation Groundspeed Altitude Reporting Facility
EDT Latitude Longitude Course Direction KTS MPH feet Rate Location/Type
Sun 09:11:08 AM 42.3500 -71.0167 262° West 156 180 800  Level KA90
Sun 09:13:00 AM 42.3610 -70.7289 172° South  Level FlightAware Approximate
Sun 09:13:30 AM 42.3286 -70.8394 99° East 271 312 6,400  Level Boston Center
Sun 09:14:00 AM 42.2712 -70.7599 228° Southwest  Level FlightAware Approximate
Sun 09:14:30 AM 42.3064 -70.7389 107° East 269 310 9,500  Level Boston Center
Sun 09:15:00 AM 42.2092 -70.8729 240° Southwest  Level FlightAware Approximate
Sun 09:15:30 AM 42.2208 -70.7300 176° South 229 264 11,500  Level Boston Center
Sun 09:16:00 AM 42.1796 -71.0045 262° West  Level FlightAware Approximate
Sun 09:16:30 AM 42.1744 -70.8350 239° Southwest 212 244 13,900  Level Boston Center
Sun 09:17:30 AM 42.1614 -70.9472 261° West 256 295 15,800 2,300 Climbing Boston Center
Sun 09:18:30 AM 42.1442 -71.0819 260° West 317 365 18,500 3,150 Climbing Boston Center
Sun 09:19:30 AM 42.1311 -71.2056 262° West 337 388 22,100 2,900 Climbing Boston Center
Sun 09:20:30 AM 42.1178 -71.3233 261° West 330 380 24,300 1,950 Climbing Boston Center
Sun 09:21:30 AM 42.1042 -71.4411 261° West 325 374 26,000 850 Climbing Boston Center
Sun 09:22:30 AM 42.0906 -71.5617 261° West 325 374 26,000  Level Boston Center
Sun 09:23:30 AM 42.0728 -71.6681 257° West 325 374 26,000  Level Boston Center
Sun 09:24:30 AM 42.0567 -71.7914 260° West 330 380 26,000 250 Level Boston Center
Sun 09:25:30 AM 42.0386 -71.9258 260° West 347 399 26,500 950 Climbing Boston Center
Sun 09:26:30 AM 42.0206 -72.0683 260° West 376 433 27,900 750 Climbing Boston Center
Sun 09:27:30 AM 41.9728 -72.2028 244° Southwest 399 459 28,000 50 Climbing Boston Center
Sun 09:28:30 AM 41.9086 -72.3286 236° Southwest 399 459 28,000  Level Boston Center
Sun 09:29:30 AM 41.8461 -72.4569 237° Southwest 405 466 28,000  Level Boston Center
Sun 09:30:30 AM 41.7833 -72.5819 236° Southwest 410 472 28,000  Level Boston Center
Sun 09:31:30 AM 41.7228 -72.7072 237° Southwest 416 479 28,000  Level Boston Center
Sun 09:32:30 AM 41.6600 -72.8319 236° Southwest 416 479 28,000  Level Boston Center
Sun 09:33:30 AM 41.5969 -72.9564 236° Southwest 416 479 28,000  Level Boston Center
Sun 09:34:30 AM 41.5358 -73.0833 237° Southwest 421 484 28,000  Level Boston Center
Sun 09:36:39 AM 41.3978 -73.3544 236° Southwest 407 468 28,000  Level New York Center
Sun 09:37:39 AM 41.3347 -73.4789 236° Southwest 413 475 28,000  Level New York Center
Sun 09:38:37 AM 41.2692 -73.6061 236° Southwest 413 475 28,000  Level New York Center
Sun 09:39:38 AM 41.1975 -73.7272 232° Southwest 418 481 28,000  Level New York Center
Sun 09:40:38 AM 41.1278 -73.8453 232° Southwest 418 481 28,000  Level New York Center
Sun 09:41:39 AM 41.0581 -73.9658 233° Southwest 423 487 28,000  Level New York Center
Sun 09:42:39 AM 40.9861 -74.0833 231° Southwest 423 487 28,000  Level New York Center
Sun 09:43:37 AM 40.9119 -74.2006 230° Southwest 423 487 28,000  Level New York Center
Sun 09:44:38 AM 40.8397 -74.3175 231° Southwest 423 487 28,000  Level New York Center
Sun 09:45:40 AM 40.7692 -74.4372 232° Southwest 423 487 28,000 -353 Level New York Center
Sun 09:46:37 AM 40.6969 -74.5539 231° Southwest 423 487 27,300 -814 Descending New York Center
Sun 09:47:38 AM 40.6264 -74.6703 231° Southwest 423 487 26,400 -934 Descending New York Center
Sun 09:48:39 AM 40.5625 -74.7758 231° Southwest 417 480 25,400 -992 Descending New York Center
Sun 09:49:39 AM 40.4858 -74.8806 226° Southwest 412 474 24,400 -1,000 Descending New York Center
Sun 09:50:39 AM 40.4133 -74.9853 228° Southwest 400 460 23,400 -1,017 Descending New York Center
Sun 09:51:37 AM 40.3389 -75.0894 227° Southwest 400 460 22,400 -1,017 Descending New York Center
Sun 09:52:37 AM 40.2661 -75.1939 228° Southwest 400 460 21,400 -992 Descending New York Center
Sun 09:53:38 AM 40.1956 -75.2925 227° Southwest 400 460 20,400 -992 Descending New York Center
Sun 09:54:38 AM 40.1253 -75.3883 226° Southwest 389 448 19,400 -992 Descending New York Center
Sun 09:55:39 AM 40.0439 -75.4969 226° Southwest 384 442 18,400 -700 Descending New York Center
Sun 09:56:38 AM 39.9753 -75.5925 227° Southwest 374 430 18,000 -202 Descending New York Center
Sun 09:57:38 AM 39.9156 -75.6806 229° Southwest 368 423 18,000 -50 Level New York Center
Sun 09:58:39 AM 39.8542 -75.7978 236° Southwest 363 418 17,900 -992 Descending New York Center
Sun 09:59:39 AM 39.8019 -75.8994 236° Southwest 354 407 16,000 -1,974 Descending New York Center
Sun 10:01:11 AM 39.7167 -76.0500 234° Southwest 329 379 12,900 -1,557 Descending Potomac TRACON
Sun 10:02:17 AM 39.6667 -76.1667 241° Southwest 324 373 11,900 -950 Descending Potomac TRACON
Sun 10:03:11 AM 39.6000 -76.2333 218° Southwest 293 337 11,000 -1,000 Descending Potomac TRACON
Sun 10:04:11 AM 39.5500 -76.2833 218° Southwest 282 325 10,000 -1,000 Descending Potomac TRACON
Sun 10:05:05 AM 39.4833 -76.3500 218° Southwest 279 321 9,100 -1,053 Descending Potomac TRACON
Sun 10:06:05 AM 39.4333 -76.4000 218° Southwest 276 318 8,000 -1,050 Descending Potomac TRACON
Sun 10:07:05 AM 39.3500 -76.4167 189° South 279 321 7,000 -947 Descending Potomac TRACON
Sun 10:07:59 AM 39.3000 -76.4000 166° South 247 284 6,200 -1,158 Descending Potomac TRACON
Sun 10:08:59 AM 39.2333 -76.4000 180° South 234 269 4,800 -1,488 Descending Potomac TRACON
Sun 10:10:00 AM 39.1667 -76.4000 180° South 225 259 3,200 -1,190 Descending Potomac TRACON
Sun 10:11:00 AM 39.1167 -76.4333 207° Southwest 209 241 2,400 -632 Descending Potomac TRACON
Sun 10:11:54 AM 39.0833 -76.4833 229° Southwest 201 231 2,000 -474 Descending Potomac TRACON
Sun 10:12:54 AM 39.0833 -76.5500 270° West 187 215 1,500 -250 Descending Potomac TRACON
Sun 10:13:54 AM 39.1000 -76.6000 293° West 174 200 1,500 -350 Level Potomac TRACON
Sun 10:14:54 AM 39.1333 -76.6333 322° Northwest 136 157 800 -700 Descending Potomac TRACON
Sun 10:16:00 AM 39.1667 -76.6667 270° West  Level FlightAware Approximate

Login

Don't have an account? Register now (free) for customized features, flight alerts, and more!